Time;durP1;ratioP1;P1;durP2;ratioP2;P2;SDS_P1;SDS_P2;PMS_P1;PMS_P2;Temp;Humidity;BMP_temperature;BMP_pressure;BME280_temperature;BME280_humidity;BME280_pressure;Samples;Min_cycle;Max_cycle;Signal;HPM_P1;HPM_P2
2022/05/19 00:01:04;;;;;;;2.13;0.90;;;;;;;4.06;74.15;97522.94;5113780;28;20030;-64
2022/05/19 00:03:31;;;;;;;4.15;1.30;;;;;;;4.00;73.91;97524.63;5113841;28;20147;-64
2022/05/19 00:05:58;;;;;;;1.73;0.90;;;;;;;3.96;73.89;97525.50;5113886;28;20024;-67
2022/05/19 00:08:24;;;;;;;9.27;0.93;;;;;;;3.89;73.97;97526.31;5113726;28;20027;-65
2022/05/19 00:10:52;;;;;;;3.03;1.20;;;;;;;3.86;74.19;97521.13;5113626;28;20022;-62
2022/05/19 00:13:18;;;;;;;1.00;0.90;;;;;;;3.78;74.65;97519.38;5113772;28;20101;-62
2022/05/19 00:15:44;;;;;;;2.25;0.90;;;;;;;3.83;74.54;97519.41;5113643;28;20483;-62
2022/05/19 00:18:09;;;;;;;1.80;0.80;;;;;;;3.78;74.73;97515.91;5113613;28;20059;-66
2022/05/19 00:20:35;;;;;;;2.17;1.05;;;;;;;3.71;74.63;97511.56;5113466;28;20058;-66
2022/05/19 00:23:01;;;;;;;3.17;1.10;;;;;;;3.67;74.77;97510.66;5113520;28;20077;-63
2022/05/19 00:25:27;;;;;;;5.07;1.02;;;;;;;3.61;74.87;97506.34;5113377;28;20073;-64
2022/05/19 00:27:53;;;;;;;2.67;0.95;;;;;;;3.65;74.98;97507.22;5113179;28;20444;-65
2022/05/19 00:30:18;;;;;;;1.48;0.88;;;;;;;3.65;75.03;97507.22;5112290;28;20047;-61
2022/05/19 00:32:44;;;;;;;1.23;1.10;;;;;;;3.61;75.34;97502.91;5113638;28;20106;-62
2022/05/19 00:35:10;;;;;;;3.92;1.10;;;;;;;3.63;75.61;97502.03;5116731;28;20081;-63
2022/05/19 00:37:35;;;;;;;1.08;0.98;;;;;;;3.64;75.28;97501.19;5117633;28;20469;-63
2022/05/19 00:40:01;;;;;;;5.03;1.15;;;;;;;3.62;75.18;97502.91;5117737;28;20030;-62
2022/05/19 00:42:44;;;;;;;1.80;1.00;;;;;;;3.61;74.90;97503.75;5117631;28;20106;-62
2022/05/19 00:45:13;;;;;;;6.45;1.13;;;;;;;3.50;75.52;97506.28;5117777;28;20024;-66
2022/05/19 00:47:50;;;;;;;1.33;1.00;;;;;;;3.50;76.26;97511.47;5117521;28;20018;-65
2022/05/19 00:50:45;;;;;;;6.70;1.58;;;;;;;3.50;76.53;97515.78;5117731;28;20023;-63
2022/05/19 00:53:38;;;;;;;0.88;0.80;;;;;;;3.38;76.64;97513.97;5110316;28;20045;-64
2022/05/19 00:56:13;;;;;;;2.08;0.98;;;;;;;3.35;76.77;97513.94;5117392;28;20357;-64
2022/05/19 00:58:46;;;;;;;1.10;1.00;;;;;;;3.33;76.74;97511.34;5117078;28;20104;-65
2022/05/19 01:01:11;;;;;;;4.18;0.93;;;;;;;3.37;77.10;97512.25;5117292;28;20023;-63
2022/05/19 01:03:49;;;;;;;2.22;1.35;;;;;;;3.38;76.94;97506.22;5117299;28;20073;-64
2022/05/19 01:06:18;;;;;;;2.28;1.10;;;;;;;3.36;77.29;97501.03;5117340;28;20024;-63
2022/05/19 01:09:01;;;;;;;4.13;1.10;;;;;;;3.33;76.94;97507.88;5117080;28;20492;-61
2022/05/19 01:11:26;;;;;;;1.40;1.02;;;;;;;3.36;77.05;97505.31;5117098;28;20023;-63
2022/05/19 01:13:52;;;;;;;1.30;1.20;;;;;;;3.36;76.76;97511.38;5117037;28;20018;-66
2022/05/19 01:16:18;;;;;;;1.25;1.13;;;;;;;3.40;76.43;97507.94;5117053;28;20034;-62
2022/05/19 01:18:45;;;;;;;3.30;1.38;;;;;;;3.48;77.29;97504.53;5116960;28;20426;-62
2022/05/19 01:21:14;;;;;;;4.43;0.90;;;;;;;3.48;77.34;97512.28;5116815;28;20012;-65
2022/05/19 01:23:52;;;;;;;1.40;1.00;;;;;;;3.47;76.87;97498.50;5116697;28;20028;-63
2022/05/19 01:26:35;;;;;;;2.58;0.98;;;;;;;3.54;76.07;97510.63;5116953;28;20038;-63
2022/05/19 01:29:01;;;;;;;6.05;1.40;;;;;;;3.46;75.99;97507.09;5116540;28;20059;-62
2022/05/19 01:31:28;;;;;;;3.42;1.20;;;;;;;3.46;76.47;97509.69;5116825;28;20032;-64
2022/05/19 01:33:54;;;;;;;4.10;1.23;;;;;;;3.44;77.20;97505.38;5116587;28;20035;-64
2022/05/19 01:36:20;;;;;;;3.45;1.02;;;;;;;3.48;77.55;97499.34;5116770;28;20027;-62
2022/05/19 01:38:56;;;;;;;7.38;1.15;;;;;;;3.45;77.26;97504.50;5115125;28;20034;-62
2022/05/19 01:41:48;;;;;;;1.52;0.90;;;;;;;3.37;77.08;97507.06;5115271;28;20081;-63
2022/05/19 01:44:21;;;;;;;1.20;1.00;;;;;;;3.35;76.97;97509.66;5084928;28;20036;-62
2022/05/19 01:46:58;;;;;;;5.45;1.10;;;;;;;3.36;77.63;97513.97;5115834;28;20047;-64
2022/05/19 01:49:52;;;;;;;5.30;1.00;;;;;;;3.43;76.94;97511.41;5116402;28;20085;-62
2022/05/19 01:52:24;;;;;;;5.40;1.00;;;;;;;3.36;77.15;97518.25;5110167;28;20032;-62
2022/05/19 01:55:09;;;;;;;3.97;1.10;;;;;;;3.29;77.15;97514.78;5116339;28;20100;-62
2022/05/19 01:57:39;;;;;;;1.55;1.00;;;;;;;3.27;77.61;97513.88;5116147;28;20039;-65
2022/05/19 02:00:16;;;;;;;2.55;1.58;;;;;;;3.25;77.82;97515.63;5116179;28;20023;-66
2022/05/19 02:02:57;;;;;;;1.23;0.90;;;;;;;3.28;77.71;97524.25;5116205;27;20030;-61
2022/05/19 02:05:43;;;;;;;3.03;1.02;;;;;;;3.29;77.67;97519.94;5116094;28;20035;-65
2022/05/19 02:08:18;;;;;;;2.10;0.75;;;;;;;3.25;78.68;97518.22;5116110;28;20020;-65
2022/05/19 02:10:48;;;;;;;1.20;1.08;;;;;;;3.22;78.91;97518.19;5115856;28;20023;-66
2022/05/19 02:13:14;;;;;;;;;;;;;;;3.21;78.70;97517.31;5115064;28;20114;-63
2022/05/19 02:15:43;;;;;;;1.75;1.02;;;;;;;3.22;79.08;97520.78;5115822;28;20007;-64
2022/05/19 02:18:09;;;;;;;4.57;1.10;;;;;;;3.23;79.16;97518.19;5115677;28;20019;-64
2022/05/19 02:20:37;;;;;;;3.85;1.08;;;;;;;3.19;79.08;97526.75;5115714;28;20032;-63
2022/05/19 02:23:04;;;;;;;3.33;1.40;;;;;;;3.24;79.32;97527.69;5114538;28;20034;-66
2022/05/19 02:25:45;;;;;;;4.50;1.30;;;;;;;3.24;79.20;97516.44;5115634;28;20024;-66
2022/05/19 02:28:17;;;;;;;3.92;1.30;;;;;;;3.34;79.17;97520.00;5115326;28;20059;-61
2022/05/19 02:30:43;;;;;;;1.52;0.93;;;;;;;3.37;79.09;97523.44;5115638;28;20116;-65
2022/05/19 02:33:12;;;;;;;6.45;0.95;;;;;;;3.39;78.99;97521.75;5115429;28;20397;-64
2022/05/19 02:35:38;;;;;;;2.75;1.30;;;;;;;3.42;78.24;97520.88;5115411;28;20088;-65
2022/05/19 02:38:04;;;;;;;1.35;1.10;;;;;;;3.45;77.86;97527.78;5114131;28;20027;-66
2022/05/19 02:40:32;;;;;;;2.35;1.10;;;;;;;3.44;77.65;97518.31;5115484;28;20639;-63
2022/05/19 02:42:59;;;;;;;3.95;1.23;;;;;;;3.51;77.66;97526.13;5115439;28;20107;-64
2022/05/19 02:45:26;;;;;;;2.38;1.15;;;;;;;3.59;77.56;97530.47;5115213;28;20434;-62
2022/05/19 02:47:52;;;;;;;1.27;1.17;;;;;;;3.58;77.33;97527.00;5115069;28;20500;-66
2022/05/19 02:50:19;;;;;;;2.35;1.20;;;;;;;3.58;77.33;97524.44;5115251;28;20098;-64
2022/05/19 02:52:45;;;;;;;1.25;1.15;;;;;;;3.56;76.89;97528.75;5115420;28;20030;-67
2022/05/19 02:55:11;;;;;;;3.33;1.00;;;;;;;3.60;77.21;97534.78;5115169;28;20103;-67
2022/05/19 02:57:37;;;;;;;8.10;1.27;;;;;;;3.63;77.34;97534.81;5113786;28;20522;-64
2022/05/19 03:00:11;;;;;;;3.95;1.30;;;;;;;3.64;77.30;97540.00;5114972;28;20020;-63
2022/05/19 03:02:37;;;;;;;2.47;1.00;;;;;;;3.62;77.10;97540.84;5115215;28;20093;-62
2022/05/19 03:05:03;;;;;;;27.52;23.35;;;;;;;3.61;77.07;97536.53;5114924;28;20106;-62
2022/05/19 03:07:28;;;;;;;14.45;10.57;;;;;;;3.61;77.30;97533.94;5114833;28;20111;-65
2022/05/19 03:09:54;;;;;;;48.03;42.92;;;;;;;3.61;77.33;97532.22;5114725;28;20090;-64
2022/05/19 03:12:19;;;;;;;29.73;26.80;;;;;;;3.61;77.38;97542.56;5114751;28;20020;-64
2022/05/19 03:14:45;;;;;;;7.32;6.25;;;;;;;3.62;77.32;97538.25;5114624;28;20090;-64
2022/05/19 03:17:11;;;;;;;5.47;4.97;;;;;;;3.56;77.88;97533.03;5114635;28;20047;-62
2022/05/19 03:19:38;;;;;;;3.28;2.97;;;;;;;3.59;77.87;97533.94;5114484;28;20473;-65
2022/05/19 03:22:05;;;;;;;8.18;2.63;;;;;;;3.61;77.58;97537.38;5114455;28;20024;-63
2022/05/19 03:24:31;;;;;;;3.47;2.60;;;;;;;3.57;77.78;97546.00;5114420;28;20047;-63
2022/05/19 03:26:57;;;;;;;2.63;2.08;;;;;;;3.53;77.76;97541.66;5114446;28;20055;-65
2022/05/19 03:29:22;;;;;;;7.10;2.63;;;;;;;3.50;78.25;97542.50;5114248;28;20051;-64
2022/05/19 03:31:48;;;;;;;9.48;4.60;;;;;;;3.59;78.59;97540.81;5114364;28;20016;-65
2022/05/19 03:34:17;;;;;;;5.10;3.33;;;;;;;3.65;78.28;97538.28;5113025;28;20023;-65
2022/05/19 03:36:46;;;;;;;2.45;2.25;;;;;;;3.73;78.19;97539.19;5114166;28;20023;-65
2022/05/19 03:39:13;;;;;;;3.50;2.60;;;;;;;3.84;78.55;97544.41;5114283;28;20027;-62
2022/05/19 03:41:39;;;;;;;9.68;5.35;;;;;;;4.11;78.52;97542.81;5114219;28;20083;-62
2022/05/19 03:44:05;;;;;;;6.30;3.72;;;;;;;4.58;76.53;97553.31;5112899;28;20111;-64
2022/05/19 03:46:30;;;;;;;5.82;3.17;;;;;;;5.07;75.53;97556.84;5114155;28;20479;-64
2022/05/19 03:48:56;;;;;;;7.28;1.90;;;;;;;5.63;73.52;97559.38;5113961;28;20020;-66
2022/05/19 03:51:25;;;;;;;2.63;1.95;;;;;;;6.20;70.84;97557.50;5114086;28;20055;-63
2022/05/19 03:53:52;;;;;;;1.65;1.50;;;;;;;6.82;69.61;97562.41;5113992;28;20015;-62
2022/05/19 03:56:19;;;;;;;1.38;1.20;;;;;;;7.43;67.88;97564.50;5113925;28;20024;-64
2022/05/19 03:58:44;;;;;;;1.77;0.80;;;;;;;7.97;64.92;97570.06;5113780;28;20024;-66
2022/05/19 04:01:10;;;;;;;4.80;0.90;;;;;;;8.47;63.82;97570.34;5113872;28;20026;-63
2022/05/19 04:03:36;;;;;;;3.42;0.77;;;;;;;8.90;62.28;97569.78;5112616;28;20062;-63
2022/05/19 04:06:02;;;;;;;3.67;1.02;;;;;;;9.32;61.91;97574.34;5114007;28;20104;-63
2022/05/19 04:08:28;;;;;;;1.38;0.80;;;;;;;9.81;60.06;97571.81;5113594;28;20493;-65
2022/05/19 04:10:54;;;;;;;3.75;0.90;;;;;;;10.13;59.73;97574.66;5113677;28;20020;-65
2022/05/19 04:13:20;;;;;;;3.03;1.00;;;;;;;10.57;58.76;97580.75;5113714;28;20055;-63
2022/05/19 04:15:45;;;;;;;4.88;1.48;;;;;;;10.95;58.10;97583.44;5113694;28;20059;-63
2022/05/19 04:18:11;;;;;;;4.20;0.82;;;;;;;11.42;55.72;97576.25;5113535;28;20023;-64
2022/05/19 04:20:37;;;;;;;4.50;0.73;;;;;;;11.80;55.97;97581.41;5113760;28;20019;-66
2022/05/19 04:23:03;;;;;;;5.18;0.93;;;;;;;12.21;54.78;97570.72;5113577;28;20369;-61
2022/05/19 04:25:29;;;;;;;2.22;0.90;;;;;;;12.63;53.62;97577.38;5113632;28;20023;-63
2022/05/19 04:27:56;;;;;;;3.20;1.48;;;;;;;12.93;52.76;97573.88;5113347;28;20139;-66
2022/05/19 04:30:23;;;;;;;3.10;0.73;;;;;;;13.30;52.35;97574.47;5113577;28;20040;-63
2022/05/19 04:32:49;;;;;;;2.80;1.00;;;;;;;13.65;51.59;97572.47;5113538;28;20469;-62
2022/05/19 04:35:16;;;;;;;3.55;1.02;;;;;;;13.97;51.26;97569.63;5113481;28;20373;-62
2022/05/19 04:37:42;;;;;;;3.20;0.82;;;;;;;14.13;50.33;97572.56;5113484;28;20019;-63
2022/05/19 04:40:09;;;;;;;2.63;1.02;;;;;;;14.31;50.78;97573.69;5113508;28;20020;-63
2022/05/19 04:42:34;;;;;;;3.33;0.98;;;;;;;14.44;50.22;97578.47;5113544;28;20016;-63
2022/05/19 04:45:00;;;;;;;1.42;0.80;;;;;;;14.72;50.88;97577.44;5113505;28;20027;-61
2022/05/19 04:47:27;;;;;;;1.30;0.82;;;;;;;15.02;50.21;97572.78;5113336;28;20019;-61
2022/05/19 04:49:53;;;;;;;1.35;0.88;;;;;;;15.16;48.67;97574.88;5113287;28;20023;-63
2022/05/19 04:52:20;;;;;;;2.20;0.95;;;;;;;15.40;47.25;97574.78;5113411;28;20031;-61
2022/05/19 04:54:46;;;;;;;3.92;0.90;;;;;;;15.51;46.36;97582.25;5113334;28;20036;-61
2022/05/19 04:57:12;;;;;;;5.45;1.00;;;;;;;15.79;45.86;97583.75;5113414;28;20369;-61
2022/05/19 04:59:39;;;;;;;4.28;0.93;;;;;;;15.98;48.19;97576.84;5113304;28;20035;-61
2022/05/19 05:02:06;;;;;;;1.20;0.88;;;;;;;16.11;44.18;97585.94;5113334;28;20022;-64
2022/05/19 05:04:32;;;;;;;2.50;0.77;;;;;;;16.31;44.58;97584.19;5113304;28;20030;-60
2022/05/19 05:06:57;;;;;;;1.30;1.10;;;;;;;16.46;43.31;97589.72;5113284;28;20026;-63
2022/05/19 05:09:24;;;;;;;1.55;0.95;;;;;;;16.53;41.75;97588.50;5113223;28;20019;-61
2022/05/19 05:11:50;;;;;;;1.50;0.82;;;;;;;16.74;44.37;97591.94;5113267;28;20104;-61
2022/05/19 05:14:17;;;;;;;2.13;0.70;;;;;;;16.81;42.50;97595.16;5113220;28;20019;-63
2022/05/19 05:16:51;;;;;;;2.13;0.85;;;;;;;17.16;44.25;97597.94;5113154;28;20031;-61
2022/05/19 05:19:21;;;;;;;2.00;0.70;;;;;;;17.42;43.25;97603.75;5111866;28;20023;-62
2022/05/19 05:21:47;;;;;;;2.70;1.20;;;;;;;17.67;41.69;97599.03;5115306;28;20076;-62
2022/05/19 05:24:14;;;;;;;5.32;1.13;;;;;;;17.84;39.79;97599.94;5116887;28;20081;-63
2022/05/19 05:26:39;;;;;;;3.83;0.70;;;;;;;17.94;41.89;97595.91;5116947;28;20093;-63
2022/05/19 05:29:05;;;;;;;2.30;0.65;;;;;;;18.10;39.91;97595.13;5116562;28;20036;-61
2022/05/19 05:31:31;;;;;;;5.40;1.23;;;;;;;18.25;41.92;97594.38;5115599;28;20172;-61
2022/05/19 05:33:56;;;;;;;3.20;0.82;;;;;;;18.42;40.07;97587.28;5116741;28;20024;-63
2022/05/19 05:36:22;;;;;;;3.20;1.08;;;;;;;18.64;39.08;97594.09;5116525;28;20016;-62
2022/05/19 05:38:48;;;;;;;3.47;1.33;;;;;;;18.82;37.69;97594.88;5116505;28;20483;-60
2022/05/19 05:41:14;;;;;;;1.58;0.80;;;;;;;19.05;38.32;97593.59;5116820;28;20106;-62
2022/05/19 05:43:40;;;;;;;4.88;1.33;;;;;;;19.28;38.00;97593.28;5116652;27;20016;-62
2022/05/19 05:46:10;;;;;;;1.10;0.90;;;;;;;19.37;37.54;97597.19;5116440;28;20512;-62
2022/05/19 05:48:36;;;;;;;2.47;0.80;;;;;;;19.57;38.02;97596.06;5116363;28;20028;-60
2022/05/19 05:51:07;;;;;;;4.07;0.80;;;;;;;19.83;38.40;97596.31;5116233;28;20063;-60
2022/05/19 05:53:33;;;;;;;4.57;0.95;;;;;;;19.82;36.95;97594.63;5116199;28;20024;-62
2022/05/19 05:55:59;;;;;;;3.30;0.95;;;;;;;19.97;37.05;97597.28;5115138;28;20032;-60
2022/05/19 05:58:25;;;;;;;2.85;0.60;;;;;;;20.14;37.05;97596.31;5116143;28;20077;-62
2022/05/19 06:00:51;;;;;;;5.95;1.20;;;;;;;20.32;36.10;97589.03;5114842;28;20044;-61
2022/05/19 06:03:17;;;;;;;2.47;0.85;;;;;;;20.40;37.99;97600.03;5116203;28;20038;-60
2022/05/19 06:05:42;;;;;;;3.30;0.90;;;;;;;20.55;35.77;97600.03;5116173;28;20027;-62
2022/05/19 06:08:08;;;;;;;4.43;0.70;;;;;;;20.60;36.27;97599.75;5115983;28;20031;-62
2022/05/19 06:10:34;;;;;;;3.10;0.70;;;;;;;20.51;36.57;97595.88;5116060;28;20481;-62
2022/05/19 06:13:00;;;;;;;3.45;0.88;;;;;;;20.76;36.30;97600.50;5115784;28;20543;-62
2022/05/19 06:15:26;;;;;;;9.70;1.73;;;;;;;20.88;36.28;97598.88;5115806;28;20032;-62
2022/05/19 06:17:52;;;;;;;6.05;1.02;;;;;;;21.10;38.82;97604.66;5115735;28;20554;-60
2022/05/19 06:20:19;;;;;;;2.70;0.80;;;;;;;20.94;36.12;97603.84;5115937;28;20031;-62
2022/05/19 06:22:46;;;;;;;4.82;1.05;;;;;;;21.01;31.99;97604.28;5115890;28;20434;-61
2022/05/19 06:25:16;;;;;;;2.33;1.17;;;;;;;21.12;31.22;97608.91;5115708;28;20512;-60
2022/05/19 06:27:43;;;;;;;2.95;0.98;;;;;;;21.36;31.45;97610.94;5115451;28;20401;-62
2022/05/19 06:30:09;;;;;;;1.58;0.90;;;;;;;21.34;32.51;97612.84;5115706;28;20027;-61
2022/05/19 06:32:36;;;;;;;4.07;0.88;;;;;;;21.15;30.62;97605.19;5115342;28;20110;-61
2022/05/19 06:35:03;;;;;;;5.32;1.23;;;;;;;21.31;30.69;97610.41;5115565;28;20136;-63
2022/05/19 06:37:28;;;;;;;6.53;1.25;;;;;;;21.10;30.84;97617.97;5115359;28;20022;-62
2022/05/19 06:39:54;;;;;;;2.63;1.10;;;;;;;21.34;29.49;97615.50;5115454;28;20024;-60
2022/05/19 06:42:20;;;;;;;8.60;1.30;;;;;;;21.44;31.05;97613.09;5115326;28;20026;-60
2022/05/19 06:44:47;;;;;;;3.35;0.82;;;;;;;21.80;30.64;97602.81;5115427;28;20048;-62
2022/05/19 06:47:13;;;;;;;0.68;0.68;;;;;;;21.86;29.67;97601.53;5115389;28;20381;-61
2022/05/19 06:49:46;;;;;;;7.22;1.25;;;;;;;21.73;30.11;97612.13;5115100;28;20102;-60
2022/05/19 06:52:18;;;;;;;5.75;1.27;;;;;;;21.84;30.25;97605.16;5115188;28;20031;-62
2022/05/19 06:54:49;;;;;;;4.93;1.10;;;;;;;21.76;30.67;97610.13;5115172;28;20448;-61
2022/05/19 06:57:15;;;;;;;4.63;0.90;;;;;;;21.78;30.27;97605.56;5115186;28;20022;-62
2022/05/19 06:59:42;;;;;;;5.65;1.00;;;;;;;22.01;29.62;97607.63;5114966;28;20028;-61
2022/05/19 07:02:09;;;;;;;1.02;0.90;;;;;;;22.07;29.20;97602.72;5114960;28;20024;-63
2022/05/19 07:04:36;;;;;;;4.75;0.90;;;;;;;22.19;30.02;97600.19;5114870;28;20024;-62
2022/05/19 07:07:04;;;;;;;5.00;1.00;;;;;;;22.03;29.32;97605.72;5114808;28;20019;-61
2022/05/19 07:09:31;;;;;;;3.08;1.23;;;;;;;22.15;29.39;97604.88;5114762;28;20023;-63
2022/05/19 07:11:57;;;;;;;5.05;1.02;;;;;;;22.29;28.54;97598.59;5114806;28;20016;-62
2022/05/19 07:14:24;;;;;;;5.60;1.10;;;;;;;22.25;28.79;97599.78;5114730;28;20043;-60
2022/05/19 07:16:49;;;;;;;3.03;1.00;;;;;;;21.90;27.66;97609.22;5114666;28;20545;-63
2022/05/19 07:22:01;;;;;;;5.47;1.13;;;;;;;22.07;30.10;97607.22;5114985;28;20503;-62
2022/05/19 07:24:27;;;;;;;5.05;1.10;;;;;;;21.75;29.08;97605.78;5114434;28;20020;-62
2022/05/19 07:26:55;;;;;;;3.28;1.35;;;;;;;21.54;29.23;97614.22;5114596;28;20023;-61
2022/05/19 07:29:21;;;;;;;3.00;1.27;;;;;;;21.67;29.36;97616.06;5114275;28;20048;-62
2022/05/19 07:31:48;;;;;;;5.50;1.13;;;;;;;21.86;31.52;97606.84;5114437;28;20027;-63
2022/05/19 07:34:16;;;;;;;5.63;1.30;;;;;;;21.76;30.90;97604.81;5114444;28;20125;-61
2022/05/19 07:36:42;;;;;;;2.63;1.30;;;;;;;21.18;28.97;97616.50;5114328;28;20485;-62
2022/05/19 07:39:08;;;;;;;4.45;1.20;;;;;;;21.07;30.77;97613.69;5114103;27;20031;-64
2022/05/19 07:41:34;;;;;;;3.88;1.20;;;;;;;20.77;30.58;97609.34;5114331;28;20441;-63
2022/05/19 07:44:00;;;;;;;4.40;0.95;;;;;;;20.85;32.20;97609.69;5113699;28;20103;-62
2022/05/19 07:46:27;;;;;;;4.70;1.30;;;;;;;20.72;30.61;97604.31;5113112;28;20473;-64
2022/05/19 07:48:55;;;;;;;5.13;1.50;;;;;;;20.53;32.45;97618.72;5114038;28;20023;-62
2022/05/19 07:51:22;;;;;;;2.42;1.40;;;;;;;20.53;33.55;97610.75;5114054;28;20106;-63
2022/05/19 07:53:49;;;;;;;2.42;1.35;;;;;;;20.52;32.65;97609.06;5113964;28;20024;-61
2022/05/19 07:56:15;;;;;;;2.47;0.93;;;;;;;20.64;33.07;97606.56;5114040;28;20026;-62
2022/05/19 07:58:41;;;;;;;5.53;1.55;;;;;;;20.73;32.00;97605.16;5113981;28;20024;-64
2022/05/19 08:01:07;;;;;;;1.60;1.10;;;;;;;20.90;31.37;97604.13;5113791;28;20035;-63
2022/05/19 08:03:33;;;;;;;2.20;1.10;;;;;;;21.07;29.78;97609.22;5113872;28;20030;-64
2022/05/19 08:05:59;;;;;;;11.65;1.52;;;;;;;21.26;29.95;97604.50;5113904;28;20488;-62
2022/05/19 08:08:25;;;;;;;10.18;1.48;;;;;;;21.19;30.89;97601.41;5113935;28;20024;-62
2022/05/19 08:10:57;;;;;;;5.07;1.10;;;;;;;21.21;31.81;97600.34;5113871;28;20055;-64
2022/05/19 08:16:07;;;;;;;2.63;1.23;;;;;;;21.48;32.81;97598.63;5114112;28;20126;-63
2022/05/19 08:18:33;;;;;;;5.18;1.20;;;;;;;21.50;31.52;97602.06;5113507;28;20020;-63
2022/05/19 08:21:05;;;;;;;3.42;1.15;;;;;;;21.00;28.73;97599.06;5113719;28;20026;-63
2022/05/19 08:23:36;;;;;;;4.47;1.17;;;;;;;20.44;28.85;97584.78;5113733;28;20465;-63
2022/05/19 08:26:03;;;;;;;2.22;1.10;;;;;;;20.36;31.22;97595.88;5113667;28;20104;-64
2022/05/19 08:28:29;;;;;;;3.50;1.23;;;;;;;20.43;32.48;97577.72;5113381;28;20047;-64
2022/05/19 08:31:00;;;;;;;2.00;1.00;;;;;;;20.47;30.54;97587.25;5113624;28;20532;-65
2022/05/19 08:33:27;;;;;;;8.45;1.10;;;;;;;20.21;29.03;97587.03;5113782;28;20035;-61
2022/05/19 08:35:54;;;;;;;3.90;0.90;;;;;;;19.99;30.13;97590.09;5113544;28;20032;-64
2022/05/19 08:38:21;;;;;;;2.13;1.00;;;;;;;19.95;31.99;97586.75;5113446;28;20016;-63
2022/05/19 08:41:02;;;;;;;2.38;1.00;;;;;;;20.36;30.12;97589.69;5113556;28;20022;-64
2022/05/19 08:44:01;;;;;;;1.35;1.15;;;;;;;20.58;29.36;97587.41;5113736;28;20028;-63
2022/05/19 08:46:35;;;;;;;3.38;1.08;;;;;;;20.71;29.94;97584.84;5091843;28;20067;-64
2022/05/19 08:49:13;;;;;;;5.30;1.05;;;;;;;20.64;33.90;97587.97;5113435;28;20380;-62
2022/05/19 08:51:50;;;;;;;1.98;1.17;;;;;;;20.46;30.09;97585.53;5113421;28;20046;-63
2022/05/19 08:54:20;;;;;;;5.00;1.27;;;;;;;20.23;30.05;97579.84;5113449;28;20028;-64
2022/05/19 08:57:00;;;;;;;2.75;1.00;;;;;;;20.23;29.37;97584.28;5117601;28;20024;-63
2022/05/19 09:00:04;;;;;;;4.53;1.25;;;;;;;20.21;31.06;97579.06;5117464;28;20048;-64
2022/05/19 09:03:01;;;;;;;1.52;1.08;;;;;;;20.40;27.69;97580.56;5117270;28;20039;-64
2022/05/19 09:06:01;;;;;;;1.48;1.00;;;;;;;20.49;28.97;97582.66;5117307;28;20026;-61
2022/05/19 09:09:09;;;;;;;3.05;1.30;;;;;;;20.78;30.16;97577.34;5117403;28;20384;-60
2022/05/19 09:11:51;;;;;;;1.92;1.25;;;;;;;20.76;29.39;97581.03;5117264;28;20028;-62
2022/05/19 09:14:28;;;;;;;3.20;1.00;;;;;;;21.08;28.27;97579.00;5115913;28;20084;-63
2022/05/19 09:17:00;;;;;;;2.65;1.02;;;;;;;21.44;28.89;97579.38;5115832;28;20028;-62
2022/05/19 09:19:35;;;;;;;2.40;0.80;;;;;;;21.27;27.73;97582.28;5116931;28;20062;-64
2022/05/19 09:22:10;;;;;;;4.72;1.10;;;;;;;20.79;27.33;97581.69;5117062;28;20034;-62
2022/05/19 09:24:45;;;;;;;1.13;0.90;;;;;;;20.67;27.76;97578.00;5117046;28;20495;-64
2022/05/19 09:27:12;;;;;;;4.47;1.00;;;;;;;20.45;28.73;97570.53;5116817;28;20097;-62
2022/05/19 09:29:51;;;;;;;1.10;1.00;;;;;;;20.33;29.52;97562.38;5116721;28;20032;-63
2022/05/19 09:32:34;;;;;;;3.45;1.20;;;;;;;20.29;31.12;97557.34;5116808;28;20028;-62
2022/05/19 09:35:38;;;;;;;2.33;1.10;;;;;;;20.77;33.39;97545.53;5116799;28;20077;-62
2022/05/19 09:38:17;;;;;;;7.70;1.05;;;;;;;21.06;29.21;97562.31;5110828;28;20050;-64
2022/05/19 09:40:48;;;;;;;4.35;1.20;;;;;;;21.14;31.84;97559.16;5116598;28;20027;-63
2022/05/19 09:43:17;;;;;;;1.13;1.02;;;;;;;21.11;28.88;97556.69;5116614;28;20027;-64
2022/05/19 09:45:53;;;;;;;2.60;1.67;;;;;;;21.18;27.56;97549.16;5116472;28;20115;-63
2022/05/19 09:48:30;;;;;;;2.53;1.08;;;;;;;21.02;29.60;97560.81;5116398;27;20024;-61
2022/05/19 09:51:14;;;;;;;3.70;1.20;;;;;;;21.18;29.08;97541.16;5115388;28;20396;-64
2022/05/19 09:54:03;;;;;;;4.97;0.90;;;;;;;21.37;28.64;97543.47;5116484;28;20038;-65
2022/05/19 09:56:59;;;;;;;0.90;0.90;;;;;;;21.25;28.79;97538.97;5116154;28;20023;-65
2022/05/19 09:59:47;;;;;;;4.35;1.08;;;;;;;21.09;30.01;97553.25;5115328;28;20079;-61
2022/05/19 10:02:17;;;;;;;3.10;1.00;;;;;;;21.25;26.83;97546.94;5116294;28;20031;-61
2022/05/19 10:04:49;;;;;;;2.03;1.30;;;;;;;20.97;27.51;97549.59;5116182;28;20016;-64
2022/05/19 10:07:23;;;;;;;4.53;1.00;;;;;;;20.76;27.92;97541.16;5115599;28;20392;-65
2022/05/19 10:09:52;;;;;;;3.35;0.85;;;;;;;20.81;28.29;97542.59;5116163;28;20396;-62
2022/05/19 10:12:25;;;;;;;2.40;0.98;;;;;;;20.54;27.85;97530.09;5115822;28;20080;-64
2022/05/19 10:15:10;;;;;;;1.73;1.25;;;;;;;20.45;28.32;97534.19;5115998;28;20043;-62
2022/05/19 10:18:00;;;;;;;3.53;0.90;;;;;;;20.41;30.24;97524.69;5116043;28;20092;-61
2022/05/19 10:20:34;;;;;;;2.47;1.00;;;;;;;20.76;32.24;97526.06;5115945;28;20387;-64
2022/05/19 10:23:34;;;;;;;1.05;1.00;;;;;;;20.88;27.76;97531.53;5115785;28;20028;-64
2022/05/19 10:26:12;;;;;;;1.75;1.08;;;;;;;20.77;28.05;97530.41;5115708;28;20063;-62
2022/05/19 10:31:27;;;;;;;1.65;0.90;;;;;;;20.90;28.71;97527.00;5115773;28;20538;-63
2022/05/19 10:33:53;;;;;;;3.05;1.05;;;;;;;21.10;30.62;97525.69;5115451;28;20373;-63
2022/05/19 10:36:35;;;;;;;2.85;0.95;;;;;;;21.29;29.53;97525.38;5115379;28;20401;-62
2022/05/19 10:39:10;;;;;;;5.13;1.23;;;;;;;21.15;26.71;97520.94;5115405;28;20027;-64
2022/05/19 10:41:48;;;;;;;2.13;1.10;;;;;;;21.35;28.67;97521.44;5115520;28;20543;-62
2022/05/19 10:44:51;;;;;;;2.50;0.80;;;;;;;21.04;26.91;97524.31;5115586;28;20068;-62
2022/05/19 10:47:35;;;;;;;1.08;0.90;;;;;;;20.89;27.69;97510.16;5115194;27;20435;-63
2022/05/19 10:50:25;;;;;;;4.55;1.10;;;;;;;21.00;27.39;97511.31;5115227;28;20030;-61
2022/05/19 10:53:06;;;;;;;1.50;1.02;;;;;;;20.76;27.40;97503.94;5115147;28;20469;-61
2022/05/19 10:55:41;;;;;;;;;;;;;;;20.47;28.08;97510.19;5115610;28;20496;-62
2022/05/19 10:58:33;;;;;;;2.78;1.08;;;;;;;20.35;27.13;97502.97;5114947;28;19964;-61
2022/05/19 11:01:11;;;;;;;2.75;0.93;;;;;;;20.51;29.05;97503.72;5115147;28;20033;-62
2022/05/19 11:03:46;;;;;;;5.03;1.00;;;;;;;20.46;28.06;97505.81;5115017;28;20031;-64
2022/05/19 11:06:39;;;;;;;1.65;0.70;;;;;;;20.50;28.85;97501.16;5115046;28;20100;-62
2022/05/19 11:09:46;;;;;;;2.25;0.80;;;;;;;20.38;29.70;97500.13;5114748;28;20377;-64
2022/05/19 11:12:27;;;;;;;1.40;0.82;;;;;;;20.16;29.62;97480.22;5114792;28;20118;-62
2022/05/19 11:15:30;;;;;;;4.47;1.05;;;;;;;20.15;29.82;97482.03;5114920;28;20431;-64
2022/05/19 11:18:00;;;;;;;0.80;0.80;;;;;;;20.27;30.54;97477.75;5114203;28;20027;-64
2022/05/19 11:20:34;;;;;;;6.65;0.98;;;;;;;20.24;31.30;97482.41;5114262;28;20550;-61
2022/05/19 11:23:11;;;;;;;3.67;0.70;;;;;;;20.54;30.81;97486.72;5114542;28;20496;-63
2022/05/19 11:28:54;;;;;;;2.28;1.00;;;;;;;21.00;28.45;97472.28;5114584;28;20055;-64
2022/05/19 11:32:04;;;;;;;5.57;1.35;;;;;;;21.10;28.54;97461.88;5114673;28;20088;-64
2022/05/19 11:34:35;;;;;;;2.10;0.70;;;;;;;21.08;27.88;97474.44;5099729;28;20035;-64
2022/05/19 11:37:16;;;;;;;1.27;0.70;;;;;;;20.99;28.02;97459.09;5114501;28;20034;-61
2022/05/19 11:39:50;;;;;;;1.85;0.82;;;;;;;20.77;29.47;97463.97;5114193;28;20455;-63
2022/05/19 11:42:41;;;;;;;2.83;0.98;;;;;;;20.73;30.11;97470.44;5114354;28;20023;-62
2022/05/19 11:45:16;;;;;;;1.35;0.85;;;;;;;20.86;30.08;97459.00;5114252;28;20443;-62
2022/05/19 11:56:28;;;;;;;4.97;1.10;;;;;;;21.41;31.68;97453.66;5114372;28;20066;-64
2022/05/19 11:58:55;;;;;;;2.40;1.02;;;;;;;21.54;28.50;97453.66;5113834;28;20031;-65
2022/05/19 12:01:38;;;;;;;2.25;1.00;;;;;;;21.41;29.59;97449.19;5113978;28;20026;-62
2022/05/19 12:04:15;;;;;;;2.03;0.90;;;;;;;21.29;29.38;97453.53;5113946;28;20478;-64
2022/05/19 12:06:53;;;;;;;1.90;0.75;;;;;;;21.46;30.51;97452.38;5114010;28;20388;-61
2022/05/19 12:09:19;;;;;;;2.85;0.82;;;;;;;21.63;28.52;97438.84;5113951;28;20023;-62
2022/05/19 12:11:45;;;;;;;3.53;1.00;;;;;;;21.71;29.27;97444.50;5113845;28;20068;-62
2022/05/19 12:14:11;;;;;;;2.63;0.90;;;;;;;21.74;28.73;97443.44;5113706;28;20020;-60
2022/05/19 12:17:01;;;;;;;3.40;0.90;;;;;;;22.05;29.68;97438.66;5113815;28;20027;-63